createdAt,value
2023-03-12T00:01:59.797Z,1007.4
2023-03-12T00:06:56.057Z,1007.4
2023-03-12T00:12:12.617Z,1007.5
2023-03-12T00:17:18.968Z,1007.3
2023-03-12T00:22:25.341Z,1007.3
2023-03-12T00:27:31.858Z,1007.2
2023-03-12T00:33:02.254Z,1007.2
2023-03-12T00:37:44.604Z,1007.2
2023-03-12T00:42:51.094Z,1007.1
2023-03-12T00:47:57.468Z,1007.1
2023-03-12T00:53:03.842Z,1007.0
2023-03-12T00:58:37.855Z,1007.0
2023-03-12T01:03:44.373Z,1007.0
2023-03-12T01:08:30.131Z,1006.9
2023-03-12T01:13:35.508Z,1006.9
2023-03-12T01:18:42.933Z,1006.9
2023-03-12T01:23:39.380Z,1006.9
2023-03-12T01:29:09.799Z,1006.8
2023-03-12T01:34:02.194Z,1006.8
2023-03-12T01:39:08.547Z,1006.7
2023-03-12T01:44:14.923Z,1006.7
2023-03-12T01:49:21.325Z,1006.7
2023-03-12T01:54:27.732Z,1006.7
2023-03-12T01:59:34.195Z,1006.6
2023-03-12T02:04:44.175Z,1006.6
2023-03-12T02:09:50.632Z,1006.5
2023-03-12T02:14:57.026Z,1006.5
2023-03-12T02:20:27.471Z,1006.6
2023-03-12T02:24:59.756Z,1006.5
2023-03-12T02:30:36.297Z,1006.5
2023-03-12T02:35:46.775Z,1006.3
2023-03-12T02:40:19.002Z,1006.2
2023-03-12T02:45:35.415Z,1006.3
2023-03-12T02:50:41.921Z,1006.3
2023-03-12T02:55:51.865Z,1006.2
2023-03-12T03:00:58.297Z,1006.2
2023-03-12T03:06:04.592Z,1006.2
2023-03-12T03:11:11.008Z,1006.1
2023-03-12T03:19:49.667Z,1006.0
2023-03-12T03:21:23.804Z,1005.9
2023-03-12T03:26:30.321Z,1005.8
2023-03-12T03:31:36.678Z,1005.8
2023-03-12T03:36:43.057Z,1005.7
2023-03-12T03:41:49.475Z,1005.8
2023-03-12T03:46:45.814Z,1005.6
2023-03-12T03:52:02.241Z,1005.7
2023-03-12T03:57:28.653Z,1005.6
2023-03-12T04:02:15.127Z,1005.6
2023-03-12T04:07:21.494Z,1005.6
2023-03-12T04:12:27.856Z,1005.6
2023-03-12T04:17:34.285Z,1005.6
2023-03-12T04:22:40.619Z,1005.5
2023-03-12T04:27:46.994Z,1005.4
2023-03-12T04:32:53.430Z,1005.3
2023-03-12T04:38:19.958Z,1005.2
2023-03-12T04:44:06.513Z,1005.1
2023-03-12T04:49:24.940Z,1005.1
2023-03-12T04:53:09.159Z,1004.9
2023-03-12T04:58:25.538Z,1004.9
2023-03-12T05:03:32.023Z,1004.8
2023-03-12T05:08:38.367Z,1004.7
2023-03-12T05:14:56.869Z,1004.6
2023-03-12T05:18:51.111Z,1004.6
2023-03-12T05:23:57.608Z,1004.5
2023-03-12T05:29:05.562Z,1004.4
2023-03-12T05:34:25.946Z,1004.4
2023-03-12T05:42:02.691Z,1004.4
2023-03-12T05:44:24.708Z,1004.4
2023-03-12T05:49:31.080Z,1004.5
2023-03-12T05:54:57.493Z,1004.5
2023-03-12T05:59:43.868Z,1004.1
2023-03-12T06:05:11.838Z,1004.2
2023-03-12T06:09:58.170Z,1004.1
2023-03-12T06:15:04.580Z,1004.0
2023-03-12T06:20:35.001Z,1004.1
2023-03-12T06:25:17.404Z,1004.2
2023-03-12T06:30:43.846Z,1004.2
2023-03-12T06:35:30.244Z,1004.1
2023-03-12T06:40:37.072Z,1004.0
2023-03-12T06:45:43.617Z,1004.0
2023-03-12T06:50:50.029Z,1003.9
2023-03-12T06:55:56.594Z,1003.9
2023-03-12T07:01:07.026Z,1003.9
2023-03-12T07:06:09.393Z,1003.9
2023-03-12T07:11:15.767Z,1003.9
2023-03-12T07:16:22.173Z,1004.0
2023-03-12T07:22:12.698Z,1003.9
2023-03-12T07:26:34.960Z,1003.8
2023-03-12T07:32:41.619Z,1003.8
2023-03-12T07:36:47.995Z,1003.8
2023-03-12T07:41:54.205Z,1003.7
2023-03-12T07:46:50.800Z,1003.7
2023-03-12T07:51:57.173Z,1003.6
2023-03-12T07:57:13.799Z,1003.7
2023-03-12T08:02:44.338Z,1003.8
2023-03-12T08:07:26.432Z,1003.7
2023-03-12T08:12:32.848Z,1003.6
2023-03-12T08:17:39.165Z,1003.4
2023-03-12T08:22:45.785Z,1003.3
2023-03-12T08:27:51.965Z,1003.4
2023-03-12T08:32:58.457Z,1003.4
2023-03-12T08:38:04.775Z,1003.6
2023-03-12T08:43:11.195Z,1003.4
2023-03-12T08:48:17.582Z,1003.4
2023-03-12T08:53:23.980Z,1003.4
2023-03-12T08:58:30.384Z,1003.4
2023-03-12T09:03:36.721Z,1003.2
2023-03-12T09:08:43.078Z,1003.1
2023-03-12T09:18:56.031Z,1003.1
2023-03-12T09:25:14.631Z,1002.8
2023-03-12T09:29:08.924Z,1002.9
2023-03-12T09:34:15.253Z,1002.9
2023-03-12T09:40:25.338Z,1002.9
2023-03-12T09:44:31.600Z,1002.9
2023-03-12T09:49:37.930Z,1002.9
2023-03-12T09:54:47.006Z,1002.9
2023-03-12T10:00:10.876Z,1002.8
2023-03-12T10:05:00.073Z,1002.8
2023-03-12T10:12:51.769Z,1002.8
2023-03-12T10:15:09.830Z,1002.9
2023-03-12T10:20:16.238Z,1002.9
2023-03-12T10:25:22.586Z,1002.8
2023-03-12T10:30:28.986Z,1002.7
2023-03-12T10:35:35.393Z,1002.8
2023-03-12T10:40:41.725Z,1002.9
2023-03-12T10:46:08.303Z,1002.7
2023-03-12T10:53:38.953Z,1002.8
2023-03-12T10:56:00.883Z,1002.7
2023-03-12T11:01:07.389Z,1002.7
2023-03-12T11:06:33.809Z,1002.7
2023-03-12T11:11:20.171Z,1002.5
2023-03-12T11:16:27.052Z,1002.5
2023-03-12T11:21:24.506Z,1002.5
2023-03-12T11:26:40.936Z,1002.3
2023-03-12T11:32:47.622Z,1002.2
2023-03-12T11:36:53.825Z,1002.4
2023-03-12T11:42:00.226Z,1002.3
2023-03-12T11:47:06.568Z,1002.3
2023-03-12T11:52:12.962Z,1002.4
2023-03-12T11:57:19.942Z,1002.3
2023-03-12T12:02:26.613Z,1002.4
2023-03-12T12:07:32.905Z,1002.3
2023-03-12T12:12:39.343Z,1002.3
2023-03-12T12:17:45.690Z,1002.1
2023-03-12T12:22:52.076Z,1002.1
2023-03-12T12:27:58.480Z,1002.0
2023-03-12T12:33:04.849Z,1002.0
2023-03-12T12:38:11.376Z,1001.9
2023-03-12T12:43:17.995Z,1001.9
2023-03-12T12:48:24.358Z,1001.8
2023-03-12T12:53:54.786Z,1001.8
2023-03-12T12:58:37.164Z,1001.8
2023-03-12T13:03:43.530Z,1001.9
2023-03-12T13:09:13.948Z,1001.7
2023-03-12T13:13:56.306Z,1001.7
2023-03-12T13:19:02.665Z,1001.6
2023-03-12T13:23:59.102Z,1001.5
2023-03-12T13:29:15.513Z,1001.4
2023-03-12T13:34:21.893Z,1001.5
2023-03-12T13:39:28.258Z,1001.5
2023-03-12T13:44:34.683Z,1001.5
2023-03-12T13:49:41.096Z,1001.5
2023-03-12T13:54:47.464Z,1001.4
2023-03-12T13:59:53.870Z,1001.5
2023-03-12T14:05:00.369Z,1001.5
2023-03-12T14:10:26.791Z,1001.5
2023-03-12T14:15:33.430Z,1001.5
2023-03-12T14:20:19.543Z,1001.6
2023-03-12T14:25:25.922Z,1001.7
2023-03-12T14:31:44.468Z,1001.7
2023-03-12T14:35:58.810Z,1001.7
2023-03-12T14:40:59.072Z,1001.7
2023-03-12T14:46:51.600Z,1001.8
2023-03-12T14:50:57.869Z,1001.7
2023-03-12T14:56:04.329Z,1001.7
2023-03-12T15:01:55.129Z,1001.7
2023-03-12T15:11:17.567Z,1001.9
2023-03-12T15:11:23.591Z,1001.9
2023-03-12T15:16:30.064Z,1001.9
2023-03-12T15:22:00.452Z,1001.9
2023-03-12T15:27:08.242Z,1001.8
2023-03-12T15:31:51.650Z,1001.8
2023-03-12T15:36:58.248Z,1001.8
2023-03-12T15:47:11.257Z,1001.8
2023-03-12T15:52:17.631Z,1001.7
2023-03-12T15:57:24.042Z,1001.6
2023-03-12T16:02:30.456Z,1001.6
2023-03-12T16:08:48.930Z,1001.8
2023-03-12T16:14:07.368Z,1001.6
2023-03-12T16:17:49.613Z,1001.7
2023-03-12T16:23:40.212Z,1001.7
2023-03-12T16:28:46.644Z,1001.8
2023-03-12T16:33:09.643Z,1001.8
2023-03-12T16:38:15.311Z,1001.9
2023-03-12T16:43:21.688Z,1001.8
2023-03-12T16:49:28.232Z,1001.9
2023-03-12T16:53:34.472Z,1001.8
2023-03-12T16:58:40.855Z,1001.9
2023-03-12T17:03:47.275Z,1001.7
2023-03-12T17:08:53.648Z,1001.8
2023-03-12T17:14:00.013Z,1001.5
2023-03-12T17:19:06.385Z,1001.6
2023-03-12T17:24:36.842Z,1001.7
2023-03-12T17:29:19.137Z,1001.8
2023-03-12T17:34:25.510Z,1001.9
2023-03-12T17:39:31.921Z,1002.0
2023-03-12T17:44:38.337Z,1002.0
2023-03-12T17:49:44.744Z,1002.2
2023-03-12T17:54:51.138Z,1002.2
2023-03-12T18:00:17.576Z,1002.1
2023-03-12T18:05:47.961Z,1002.1
2023-03-12T18:10:34.379Z,1002.3
2023-03-12T18:15:37.112Z,1002.4
2023-03-12T18:20:37.498Z,1002.3
2023-03-12T18:25:22.024Z,1002.3
2023-03-12T18:30:38.430Z,1002.4
2023-03-12T18:36:04.983Z,1002.3
2023-03-12T18:41:15.251Z,1002.5
2023-03-12T18:45:57.600Z,1002.4
2023-03-12T18:51:04.035Z,1002.2
2023-03-12T18:56:44.559Z,1002.2
2023-03-12T19:02:12.205Z,1002.1
2023-03-12T19:07:18.465Z,1002.0
2023-03-12T19:12:30.301Z,1002.0
2023-03-12T19:17:11.251Z,1001.9
2023-03-12T19:22:41.670Z,1001.9
2023-03-12T19:27:44.071Z,1002.0
2023-03-12T19:32:21.962Z,1002.1
2023-03-12T19:37:36.842Z,1002.0
2023-03-12T19:43:03.428Z,1002.0
2023-03-12T19:47:49.729Z,1002.1
2023-03-12T19:52:56.160Z,1002.0
2023-03-12T19:58:01.801Z,1002.0
2023-03-12T20:03:29.348Z,1002.0
2023-03-12T20:08:15.562Z,1001.8
2023-03-12T20:13:46.119Z,1001.8
2023-03-12T20:18:28.527Z,1001.7
2023-03-12T20:23:34.997Z,1001.8
2023-03-12T20:28:31.422Z,1001.7
2023-03-12T20:33:47.839Z,1001.7
2023-03-12T20:39:54.348Z,1001.8
2023-03-12T20:44:00.600Z,1001.8
2023-03-12T20:49:10.549Z,1001.8
2023-03-12T20:54:40.983Z,1001.8
2023-03-12T20:59:43.399Z,1001.5
2023-03-12T21:04:29.707Z,1001.5
2023-03-12T21:09:36.078Z,1001.4
2023-03-12T21:14:42.487Z,1001.4
2023-03-12T21:19:38.855Z,1001.3
2023-03-12T21:24:55.236Z,1001.3
2023-03-12T21:30:01.625Z,1001.3
2023-03-12T21:35:08.113Z,1001.2
2023-03-12T21:40:04.381Z,1001.0
2023-03-12T21:45:19.804Z,1000.9
2023-03-12T21:50:27.208Z,1000.9
2023-03-12T21:55:33.787Z,1000.9
2023-03-12T22:01:52.323Z,1000.9
2023-03-12T22:05:46.524Z,1000.8
2023-03-12T22:12:05.025Z,1000.6
2023-03-12T22:15:59.309Z,1000.7
2023-03-12T22:21:05.677Z,1000.5
2023-03-12T22:26:12.199Z,1000.4
2023-03-12T22:31:08.630Z,1000.2
2023-03-12T22:36:24.977Z,1000.2
2023-03-12T22:41:31.340Z,1000.2
2023-03-12T22:47:01.894Z,1000.0
2023-03-12T22:51:44.167Z,999.9
2023-03-12T22:56:50.489Z,999.8
2023-03-12T23:01:56.943Z,999.7
2023-03-12T23:07:13.663Z,999.7
2023-03-12T23:14:57.971Z,999.4
2023-03-12T23:17:40.085Z,999.4
2023-03-12T23:22:46.497Z,999.3
2023-03-12T23:27:28.889Z,999.1
2023-03-12T23:32:25.259Z,999.1
2023-03-12T23:37:31.641Z,999.0
2023-03-12T23:42:48.072Z,999.0
2023-03-12T23:48:08.440Z,998.9
2023-03-12T23:54:00.903Z,998.9
2023-03-12T23:58:31.263Z,998.8
